Time,TemperatureF,DewpointF,PressureIn,WindDirection,WindDirectionDegrees,WindSpeedMPH,WindSpeedGustMPH,Humidity,HourlyPrecipIn,Conditions,Clouds,dailyrainin,SoftwareType,DateUTC
2013-05-13 00:00:00,45.8,30.5,30.04,WNW,292,0.0,2.0,55,0.00,,,-99.99,WeatherLink 5.4,2013-05-13 04:00:00,
2013-05-13 00:15:00,45.4,31.0,30.03,South,180,0.0,3.0,57,0.00,,,-99.99,WeatherLink 5.4,2013-05-13 04:15:00,
2013-05-13 00:20:00,45.4,31.0,30.03,South,180,0.0,3.0,57,0.00,,,-99.99,WeatherLink 5.4,2013-05-13 04:20:00,
2013-05-13 00:30:00,44.8,30.9,30.03,South,180,0.0,1.0,58,0.00,,,-99.99,WeatherLink 5.4,2013-05-13 04:30:00,
2013-05-13 00:35:00,44.8,30.9,30.03,South,180,0.0,1.0,58,0.00,,,-99.99,WeatherLink 5.4,2013-05-13 04:35:00,
2013-05-13 00:45:00,44.1,33.1,30.04,South,180,0.0,1.0,65,0.00,,,-99.99,WeatherLink 5.4,2013-05-13 04:45:00,
2013-05-13 01:00:00,42.6,33.9,30.04,North,-999,0.0,0.0,71,0.00,,,-99.99,WeatherLink 5.4,2013-05-13 05:00:00,
2013-05-13 01:15:00,41.9,34.2,30.04,SSW,202,0.0,3.0,74,0.00,,,-99.99,WeatherLink 5.4,2013-05-13 05:15:00,
2013-05-13 01:30:00,41.5,32.8,30.04,SW,225,0.0,2.0,71,0.00,,,-99.99,WeatherLink 5.4,2013-05-13 05:30:00,
2013-05-13 01:45:00,42.5,32.7,30.04,SW,225,0.0,3.0,68,0.00,,,-99.99,WeatherLink 5.4,2013-05-13 05:45:00,
2013-05-13 02:00:00,42.9,31.6,30.03,SW,225,0.0,2.0,64,0.00,,,-99.99,WeatherLink 5.4,2013-05-13 06:00:00,
2013-05-13 02:15:00,42.5,32.7,30.03,North,-999,0.0,0.0,68,0.00,,,-99.99,WeatherLink 5.4,2013-05-13 06:15:00,
2013-05-13 02:30:00,41.8,33.4,30.02,SW,225,0.0,1.0,72,0.00,,,-99.99,WeatherLink 5.4,2013-05-13 06:30:00,
2013-05-13 02:35:00,41.8,33.4,30.02,SW,225,0.0,1.0,72,0.00,,,-99.99,WeatherLink 5.4,2013-05-13 06:35:00,
2013-05-13 02:45:00,41.1,32.8,30.03,SW,225,0.0,1.0,72,0.00,,,-99.99,WeatherLink 5.4,2013-05-13 06:45:00,
2013-05-13 03:00:00,40.6,33.0,30.03,SW,225,0.0,2.0,74,0.00,,,-99.99,WeatherLink 5.4,2013-05-13 07:00:00,
2013-05-13 03:15:00,40.1,33.1,30.04,North,-999,0.0,0.0,76,0.00,,,-99.99,WeatherLink 5.4,2013-05-13 07:15:00,
2013-05-13 03:30:00,40.1,33.5,30.04,SW,225,0.0,2.0,77,0.00,,,-99.99,WeatherLink 5.4,2013-05-13 07:30:00,
2013-05-13 03:45:00,40.6,33.0,30.04,SW,225,0.0,3.0,74,0.00,,,-99.99,WeatherLink 5.4,2013-05-13 07:45:00,
2013-05-13 04:00:00,41.2,33.2,30.04,SW,225,1.0,6.0,73,0.00,,,-99.99,WeatherLink 5.4,2013-05-13 08:00:00,
2013-05-13 04:15:00,42.2,32.8,30.04,SSE,157,1.0,6.0,69,0.00,,,-99.99,WeatherLink 5.4,2013-05-13 08:15:00,
2013-05-13 04:20:00,42.2,32.8,30.04,SSE,157,1.0,6.0,69,0.00,,,-99.99,WeatherLink 5.4,2013-05-13 08:20:00,
2013-05-13 04:30:00,42.9,32.7,30.04,South,180,0.0,2.0,67,0.00,,,-99.99,WeatherLink 5.4,2013-05-13 08:30:00,
2013-05-13 04:45:00,43.1,32.9,30.04,South,180,1.0,7.0,67,0.00,,,-99.99,WeatherLink 5.4,2013-05-13 08:45:00,
2013-05-13 04:50:00,43.1,32.9,30.04,South,180,1.0,7.0,67,0.00,,,-99.99,WeatherLink 5.4,2013-05-13 08:50:00,
2013-05-13 05:00:00,43.6,32.2,30.04,West,270,1.0,7.0,64,0.00,,,-99.99,WeatherLink 5.4,2013-05-13 09:00:00,
2013-05-13 05:15:00,43.1,32.5,30.04,West,270,0.0,3.0,66,0.00,,,-99.99,WeatherLink 5.4,2013-05-13 09:15:00,
2013-05-13 05:20:00,43.1,32.5,30.04,West,270,0.0,3.0,66,0.00,,,-99.99,WeatherLink 5.4,2013-05-13 09:20:00,
2013-05-13 05:30:00,42.9,32.3,30.04,WNW,292,0.0,3.0,66,0.00,,,-99.99,WeatherLink 5.4,2013-05-13 09:30:00,
2013-05-13 05:35:00,42.9,32.3,30.04,WNW,292,0.0,3.0,66,0.00,,,-99.99,WeatherLink 5.4,2013-05-13 09:35:00,
2013-05-13 05:45:00,42.6,30.9,30.05,West,270,0.0,5.0,63,0.00,,,-99.99,WeatherLink 5.4,2013-05-13 09:45:00,
2013-05-13 05:50:00,42.6,30.9,30.05,West,270,0.0,5.0,63,0.00,,,-99.99,WeatherLink 5.4,2013-05-13 09:50:00,
2013-05-13 06:00:00,42.2,30.5,30.05,North,-999,0.0,0.0,63,0.00,,,-99.99,WeatherLink 5.4,2013-05-13 10:00:00,
2013-05-13 06:15:00,41.9,31.0,30.06,North,-999,0.0,0.0,65,0.00,,,-99.99,WeatherLink 5.4,2013-05-13 10:15:00,
2013-05-13 06:30:00,41.8,31.6,30.07,West,270,0.0,1.0,67,0.00,,,-99.99,WeatherLink 5.4,2013-05-13 10:30:00,
2013-05-13 06:35:00,41.8,31.6,30.07,West,270,0.0,1.0,67,0.00,,,-99.99,WeatherLink 5.4,2013-05-13 10:35:00,
2013-05-13 06:45:00,41.8,32.7,30.07,NNW,337,0.0,1.0,70,0.00,,,-99.99,WeatherLink 5.4,2013-05-13 10:45:00,
2013-05-13 06:50:00,41.8,32.7,30.07,NNW,337,0.0,1.0,70,0.00,,,-99.99,WeatherLink 5.4,2013-05-13 10:50:00,
2013-05-13 07:00:00,41.9,34.2,30.07,ESE,112,0.0,1.0,74,0.00,,,-99.99,WeatherLink 5.4,2013-05-13 11:00:00,
2013-05-13 07:15:00,42.2,33.8,30.08,ESE,112,0.0,2.0,72,0.00,,,-99.99,WeatherLink 5.4,2013-05-13 11:15:00,
2013-05-13 07:30:00,43.3,32.3,30.08,SW,225,0.0,3.0,65,0.00,,,-99.99,WeatherLink 5.4,2013-05-13 11:30:00,
2013-05-13 07:35:00,43.3,32.3,30.08,SW,225,0.0,3.0,65,0.00,,,-99.99,WeatherLink 5.4,2013-05-13 11:35:00,
2013-05-13 07:45:00,43.9,31.7,30.08,West,270,1.0,6.0,62,0.00,,,-99.99,WeatherLink 5.4,2013-05-13 11:45:00,
2013-05-13 08:00:00,44.5,32.7,30.09,NW,315,1.0,5.0,63,0.00,,,-99.99,WeatherLink 5.4,2013-05-13 12:00:00,
2013-05-13 08:15:00,44.8,33.0,30.10,WNW,292,1.0,5.0,63,0.00,,,-99.99,WeatherLink 5.4,2013-05-13 12:15:00,
2013-05-13 08:30:00,45.2,34.1,30.11,WNW,292,2.0,8.0,65,0.00,,,-99.99,WeatherLink 5.4,2013-05-13 12:30:00,
2013-05-13 08:45:00,45.7,33.8,30.11,NNW,337,4.0,10.0,63,0.00,,,-99.99,WeatherLink 5.4,2013-05-13 12:45:00,
2013-05-13 09:00:00,46.0,33.7,30.11,NNW,337,3.0,9.0,62,0.00,,,-99.99,WeatherLink 5.4,2013-05-13 13:00:00,
2013-05-13 09:05:00,46.0,33.7,30.11,NNW,337,3.0,9.0,62,0.00,,,-99.99,WeatherLink 5.4,2013-05-13 13:05:00,
2013-05-13 09:15:00,46.0,33.3,30.12,NNW,337,3.0,8.0,61,0.00,,,-99.99,WeatherLink 5.4,2013-05-13 13:15:00,
2013-05-13 09:30:00,46.4,30.2,30.12,WNW,292,4.0,10.0,53,0.00,,,-99.99,WeatherLink 5.4,2013-05-13 13:30:00,
2013-05-13 09:45:00,46.7,29.5,30.12,NW,315,6.0,14.0,51,0.00,,,-99.99,WeatherLink 5.4,2013-05-13 13:45:00,
2013-05-13 10:00:00,47.9,31.1,30.12,NW,315,5.0,16.0,52,0.00,,,-99.99,WeatherLink 5.4,2013-05-13 14:00:00,
2013-05-13 10:05:00,47.9,31.1,30.12,NW,315,5.0,16.0,52,0.00,,,-99.99,WeatherLink 5.4,2013-05-13 14:05:00,
2013-05-13 10:15:00,47.3,28.6,30.12,NW,315,7.0,18.0,48,0.00,,,-99.99,WeatherLink 5.4,2013-05-13 14:15:00,
2013-05-13 10:20:00,47.3,28.6,30.12,NW,315,7.0,18.0,48,0.00,,,-99.99,WeatherLink 5.4,2013-05-13 14:20:00,
2013-05-13 10:30:00,47.3,28.6,30.12,West,270,6.0,14.0,48,0.00,,,-99.99,WeatherLink 5.4,2013-05-13 14:30:00,
2013-05-13 10:45:00,48.8,29.4,30.12,West,270,6.0,21.0,47,0.00,,,-99.99,WeatherLink 5.4,2013-05-13 14:45:00,
2013-05-13 11:00:00,49.4,30.5,30.12,West,270,3.0,14.0,48,0.00,,,-99.99,WeatherLink 5.4,2013-05-13 15:00:00,
2013-05-13 11:05:00,49.4,30.5,30.12,West,270,3.0,14.0,48,0.00,,,-99.99,WeatherLink 5.4,2013-05-13 15:05:00,
2013-05-13 11:15:00,49.1,29.2,30.12,NW,315,7.0,18.0,46,0.00,,,-99.99,WeatherLink 5.4,2013-05-13 15:15:00,
2013-05-13 11:20:00,49.1,29.2,30.12,NW,315,7.0,18.0,46,0.00,,,-99.99,WeatherLink 5.4,2013-05-13 15:20:00,
2013-05-13 11:30:00,50.2,29.1,30.13,West,270,6.0,18.0,44,0.00,,,-99.99,WeatherLink 5.4,2013-05-13 15:30:00,
2013-05-13 11:45:00,50.1,29.0,30.13,NW,315,7.0,16.0,44,0.00,,,-99.99,WeatherLink 5.4,2013-05-13 15:45:00,
2013-05-13 12:00:00,50.4,31.9,30.12,NW,315,6.0,19.0,49,0.00,,,-99.99,WeatherLink 5.4,2013-05-13 16:00:00,
2013-05-13 12:15:00,50.8,28.5,30.12,NW,315,6.0,18.0,42,0.00,,,-99.99,WeatherLink 5.4,2013-05-13 16:15:00,
2013-05-13 12:30:00,51.0,29.8,30.12,West,270,6.0,17.0,44,0.00,,,-99.99,WeatherLink 5.4,2013-05-13 16:30:00,
2013-05-13 12:35:00,51.0,29.8,30.12,West,270,6.0,17.0,44,0.00,,,-99.99,WeatherLink 5.4,2013-05-13 16:35:00,
2013-05-13 12:45:00,52.0,28.4,30.12,NNW,337,7.0,18.0,40,0.00,,,-99.99,WeatherLink 5.4,2013-05-13 16:45:00,
2013-05-13 13:00:00,52.6,31.3,30.11,West,270,6.0,16.0,44,0.00,,,-99.99,WeatherLink 5.4,2013-05-13 17:00:00,
2013-05-13 13:05:00,52.6,31.3,30.11,West,270,6.0,16.0,44,0.00,,,-99.99,WeatherLink 5.4,2013-05-13 17:05:00,
2013-05-13 13:15:00,52.3,26.1,30.11,West,270,5.0,18.0,36,0.00,,,-99.99,WeatherLink 5.4,2013-05-13 17:15:00,
2013-05-13 13:20:00,52.3,26.1,30.11,West,270,5.0,18.0,36,0.00,,,-99.99,WeatherLink 5.4,2013-05-13 17:20:00,
2013-05-13 13:30:00,54.2,27.8,30.10,NW,315,9.0,21.0,36,0.00,,,-99.99,WeatherLink 5.4,2013-05-13 17:30:00,
2013-05-13 13:45:00,54.1,25.6,30.09,West,270,8.0,17.0,33,0.00,,,-99.99,WeatherLink 5.4,2013-05-13 17:45:00,
2013-05-13 13:50:00,54.1,25.6,30.09,West,270,8.0,17.0,33,0.00,,,-99.99,WeatherLink 5.4,2013-05-13 17:50:00,
2013-05-13 14:00:00,54.1,24.9,30.09,West,270,10.0,24.0,32,0.00,,,-99.99,WeatherLink 5.4,2013-05-13 18:00:00,
2013-05-13 14:05:00,54.1,24.9,30.09,West,270,10.0,24.0,32,0.00,,,-99.99,WeatherLink 5.4,2013-05-13 18:05:00,
2013-05-13 14:15:00,54.2,24.9,30.09,West,270,8.0,19.0,32,0.00,,,-99.99,WeatherLink 5.4,2013-05-13 18:15:00,
2013-05-13 14:20:00,54.2,24.9,30.09,West,270,8.0,19.0,32,0.00,,,-99.99,WeatherLink 5.4,2013-05-13 18:20:00,
2013-05-13 14:30:00,54.7,25.4,30.09,West,270,8.0,17.0,32,0.00,,,-99.99,WeatherLink 5.4,2013-05-13 18:30:00,
2013-05-13 14:35:00,54.7,25.4,30.09,West,270,8.0,17.0,32,0.00,,,-99.99,WeatherLink 5.4,2013-05-13 18:35:00,
2013-05-13 14:45:00,53.1,24.0,30.09,WSW,247,7.0,16.0,32,0.00,,,-99.99,WeatherLink 5.4,2013-05-13 18:45:00,
2013-05-13 15:00:00,55.1,27.9,30.08,West,270,7.0,16.0,35,0.00,,,-99.99,WeatherLink 5.4,2013-05-13 19:00:00,
2013-05-13 15:15:00,54.8,29.0,30.08,West,270,7.0,17.0,37,0.00,,,-99.99,WeatherLink 5.4,2013-05-13 19:15:00,
2013-05-13 15:30:00,54.4,25.1,30.08,NNW,337,9.0,19.0,32,0.00,,,-99.99,WeatherLink 5.4,2013-05-13 19:30:00,
2013-05-13 15:45:00,55.1,25.0,30.08,NW,315,8.0,20.0,31,0.00,,,-99.99,WeatherLink 5.4,2013-05-13 19:45:00,
2013-05-13 16:00:00,54.2,24.9,30.08,West,270,7.0,19.0,32,0.00,,,-99.99,WeatherLink 5.4,2013-05-13 20:00:00,
2013-05-13 16:05:00,54.2,24.9,30.08,West,270,7.0,19.0,32,0.00,,,-99.99,WeatherLink 5.4,2013-05-13 20:05:00,
2013-05-13 16:15:00,54.1,24.9,30.08,West,270,8.0,21.0,32,0.00,,,-99.99,WeatherLink 5.4,2013-05-13 20:15:00,
2013-05-13 16:30:00,55.0,26.4,30.07,West,270,6.0,17.0,33,0.00,,,-99.99,WeatherLink 5.4,2013-05-13 20:30:00,
2013-05-13 16:35:00,55.0,26.4,30.07,West,270,6.0,17.0,33,0.00,,,-99.99,WeatherLink 5.4,2013-05-13 20:35:00,
2013-05-13 16:45:00,55.1,25.7,30.07,NNW,337,9.0,19.0,32,0.00,,,-99.99,WeatherLink 5.4,2013-05-13 20:45:00,
2013-05-13 16:50:00,55.1,25.7,30.07,NNW,337,9.0,19.0,32,0.00,,,-99.99,WeatherLink 5.4,2013-05-13 20:50:00,
2013-05-13 17:00:00,55.1,26.5,30.07,NW,315,8.0,20.0,33,0.00,,,-99.99,WeatherLink 5.4,2013-05-13 21:00:00,
2013-05-13 17:15:00,54.7,26.1,30.08,NNW,337,8.0,17.0,33,0.00,,,-99.99,WeatherLink 5.4,2013-05-13 21:15:00,
2013-05-13 17:30:00,55.6,26.9,30.08,WNW,292,7.0,20.0,33,0.00,,,-99.99,WeatherLink 5.4,2013-05-13 21:30:00,
2013-05-13 17:35:00,55.6,26.9,30.08,WNW,292,7.0,20.0,33,0.00,,,-99.99,WeatherLink 5.4,2013-05-13 21:35:00,
2013-05-13 17:45:00,54.4,26.6,30.07,NNW,337,9.0,20.0,34,0.00,,,-99.99,WeatherLink 5.4,2013-05-13 21:45:00,
2013-05-13 17:50:00,54.4,26.6,30.07,NNW,337,9.0,20.0,34,0.00,,,-99.99,WeatherLink 5.4,2013-05-13 21:50:00,
2013-05-13 18:00:00,55.1,26.5,30.07,NW,315,7.0,19.0,33,0.00,,,-99.99,WeatherLink 5.4,2013-05-13 22:00:00,
2013-05-13 18:15:00,53.5,25.1,30.08,NNW,337,8.0,19.0,33,0.00,,,-99.99,WeatherLink 5.4,2013-05-13 22:15:00,
2013-05-13 18:30:00,52.9,27.3,30.08,NNW,337,6.0,12.0,37,0.00,,,-99.99,WeatherLink 5.4,2013-05-13 22:30:00,
2013-05-13 18:45:00,53.8,27.4,30.08,NNW,337,6.0,13.0,36,0.00,,,-99.99,WeatherLink 5.4,2013-05-13 22:45:00,
2013-05-13 19:00:00,52.9,26.6,30.08,NNW,337,8.0,17.0,36,0.00,,,-99.99,WeatherLink 5.4,2013-05-13 23:00:00,
2013-05-13 19:15:00,52.3,27.4,30.08,NNW,337,7.0,14.0,38,0.00,,,-99.99,WeatherLink 5.4,2013-05-13 23:15:00,
2013-05-13 19:30:00,51.7,26.9,30.09,NNW,337,6.0,17.0,38,0.00,,,-99.99,WeatherLink 5.4,2013-05-13 23:30:00,
2013-05-13 19:45:00,51.0,28.1,30.09,NNW,337,3.0,10.0,41,0.00,,,-99.99,WeatherLink 5.4,2013-05-13 23:45:00,
2013-05-13 20:00:00,50.4,28.7,30.10,NNW,337,4.0,13.0,43,0.00,,,-99.99,WeatherLink 5.4,2013-05-14 00:00:00,
2013-05-13 20:15:00,49.5,29.0,30.10,North,0,1.0,7.0,45,0.00,,,-99.99,WeatherLink 5.4,2013-05-14 00:15:00,
2013-05-13 20:20:00,49.5,29.0,30.10,North,0,1.0,7.0,45,0.00,,,-99.99,WeatherLink 5.4,2013-05-14 00:20:00,
2013-05-13 20:30:00,48.5,29.2,30.11,North,0,0.0,5.0,47,0.00,,,-99.99,WeatherLink 5.4,2013-05-14 00:30:00,
2013-05-13 20:45:00,47.7,28.9,30.11,North,0,0.0,4.0,48,0.00,,,-99.99,WeatherLink 5.4,2013-05-14 00:45:00,
2013-05-13 21:00:00,46.8,31.5,30.12,North,0,0.0,2.0,55,0.00,,,-99.99,WeatherLink 5.4,2013-05-14 01:00:00,
2013-05-13 21:05:00,46.8,31.5,30.12,North,0,0.0,2.0,55,0.00,,,-99.99,WeatherLink 5.4,2013-05-14 01:05:00,
2013-05-13 21:15:00,45.2,30.4,30.13,North,0,0.0,2.0,56,0.00,,,-99.99,WeatherLink 5.4,2013-05-14 01:15:00,
2013-05-13 21:30:00,44.3,31.3,30.14,North,-999,0.0,0.0,60,0.00,,,-99.99,WeatherLink 5.4,2013-05-14 01:30:00,
2013-05-13 21:35:00,44.3,31.3,30.14,North,-999,0.0,0.0,60,0.00,,,-99.99,WeatherLink 5.4,2013-05-14 01:35:00,
2013-05-13 21:45:00,43.5,31.7,30.14,North,-999,0.0,0.0,63,0.00,,,-99.99,WeatherLink 5.4,2013-05-14 01:45:00,
2013-05-13 22:00:00,42.6,31.7,30.15,North,-999,0.0,0.0,65,0.00,,,-99.99,WeatherLink 5.4,2013-05-14 02:00:00,
2013-05-13 22:15:00,41.8,33.4,30.16,North,-999,0.0,0.0,72,0.00,,,-99.99,WeatherLink 5.4,2013-05-14 02:15:00,
2013-05-13 22:30:00,40.8,32.8,30.16,North,-999,0.0,0.0,73,0.00,,,-99.99,WeatherLink 5.4,2013-05-14 02:30:00,
2013-05-13 22:45:00,39.8,32.5,30.17,North,-999,0.0,0.0,75,0.00,,,-99.99,WeatherLink 5.4,2013-05-14 02:45:00,
2013-05-13 23:00:00,39.1,32.5,30.17,North,-999,0.0,0.0,77,0.00,,,-99.99,WeatherLink 5.4,2013-05-14 03:00:00,
2013-05-13 23:05:00,39.1,32.5,30.17,North,-999,0.0,0.0,77,0.00,,,-99.99,WeatherLink 5.4,2013-05-14 03:05:00,
2013-05-13 23:15:00,38.3,32.0,30.17,North,-999,0.0,0.0,78,0.00,,,-99.99,WeatherLink 5.4,2013-05-14 03:15:00,
2013-05-13 23:20:00,38.3,32.0,30.17,North,-999,0.0,0.0,78,0.00,,,-99.99,WeatherLink 5.4,2013-05-14 03:20:00,
2013-05-13 23:30:00,37.5,32.2,30.18,North,0,0.0,1.0,81,0.00,,,-99.99,WeatherLink 5.4,2013-05-14 03:30:00,
2013-05-13 23:35:00,37.5,32.2,30.18,North,0,0.0,1.0,81,0.00,,,-99.99,WeatherLink 5.4,2013-05-14 03:35:00,
2013-05-13 23:45:00,36.6,31.6,30.19,North,-999,0.0,0.0,82,0.00,,,-99.99,WeatherLink 5.4,2013-05-14 03:45:00,